sensor_id;sensor_type;location;lat;lon;timestamp;pressure;altitude;pressure_sealevel;temperature;humidity
41306;BME280;27051;50.376;19.152;2022-12-18T00:01:18;99540.23;;;-1.18;59.67
41306;BME280;27051;50.376;19.152;2022-12-18T00:03:55;99541.34;;;-1.16;59.65
41306;BME280;27051;50.376;19.152;2022-12-18T00:06:21;99545.63;;;-1.13;59.83
41306;BME280;27051;50.376;19.152;2022-12-18T00:08:48;99547.94;;;-1.04;59.89
41306;BME280;27051;50.376;19.152;2022-12-18T00:11:19;99544.44;;;-1.07;59.81
41306;BME280;27051;50.376;19.152;2022-12-18T00:13:46;99546.73;;;-0.99;59.65
41306;BME280;27051;50.376;19.152;2022-12-18T00:16:21;99553.34;;;-0.99;59.84
41306;BME280;27051;50.376;19.152;2022-12-18T00:18:49;99552.33;;;-0.98;59.66
41306;BME280;27051;50.376;19.152;2022-12-18T00:21:16;99557.48;;;-1.03;59.67
41306;BME280;27051;50.376;19.152;2022-12-18T00:23:45;99568.28;;;-0.93;59.73
41306;BME280;27051;50.376;19.152;2022-12-18T00:26:14;99564.41;;;-1.00;59.53
41306;BME280;27051;50.376;19.152;2022-12-18T00:28:45;99569.05;;;-1.04;59.59
41306;BME280;27051;50.376;19.152;2022-12-18T00:31:14;99562.97;;;-1.05;59.64
41306;BME280;27051;50.376;19.152;2022-12-18T00:33:41;99565.85;;;-1.06;59.67
41306;BME280;27051;50.376;19.152;2022-12-18T00:36:10;99565.67;;;-1.02;59.74
41306;BME280;27051;50.376;19.152;2022-12-18T00:38:38;99567.63;;;-0.98;59.66
41306;BME280;27051;50.376;19.152;2022-12-18T00:41:04;99574.02;;;-0.96;59.78
41306;BME280;27051;50.376;19.152;2022-12-18T00:43:30;99569.08;;;-0.93;59.70
41306;BME280;27051;50.376;19.152;2022-12-18T00:45:56;99583.50;;;-0.86;59.50
41306;BME280;27051;50.376;19.152;2022-12-18T00:48:22;99578.84;;;-0.93;59.52
41306;BME280;27051;50.376;19.152;2022-12-18T00:50:48;99588.94;;;-0.90;59.55
41306;BME280;27051;50.376;19.152;2022-12-18T00:53:15;99588.69;;;-1.00;59.60
41306;BME280;27051;50.376;19.152;2022-12-18T00:55:41;99591.91;;;-0.98;59.62
41306;BME280;27051;50.376;19.152;2022-12-18T00:58:19;99593.96;;;-1.00;59.71
41306;BME280;27051;50.376;19.152;2022-12-18T01:00:44;99599.89;;;-0.96;59.74
41306;BME280;27051;50.376;19.152;2022-12-18T01:03:12;99602.92;;;-1.01;59.82
41306;BME280;27051;50.376;19.152;2022-12-18T01:05:40;99607.56;;;-0.94;59.74
41306;BME280;27051;50.376;19.152;2022-12-18T01:08:07;99606.94;;;-0.99;59.83
41306;BME280;27051;50.376;19.152;2022-12-18T01:10:33;99609.12;;;-0.96;59.74
41306;BME280;27051;50.376;19.152;2022-12-18T01:12:58;99619.56;;;-0.89;59.58
41306;BME280;27051;50.376;19.152;2022-12-18T01:15:24;99616.86;;;-0.92;59.71
41306;BME280;27051;50.376;19.152;2022-12-18T01:17:52;99622.45;;;-0.91;59.58
41306;BME280;27051;50.376;19.152;2022-12-18T01:20:18;99622.02;;;-0.97;59.57
41306;BME280;27051;50.376;19.152;2022-12-18T01:22:44;99626.10;;;-0.92;59.62
41306;BME280;27051;50.376;19.152;2022-12-18T01:25:09;99624.50;;;-0.93;59.69
41306;BME280;27051;50.376;19.152;2022-12-18T01:27:35;99633.41;;;-0.84;59.53
41306;BME280;27051;50.376;19.152;2022-12-18T01:30:01;99630.58;;;-0.92;59.48
41306;BME280;27051;50.376;19.152;2022-12-18T01:32:29;99627.73;;;-0.91;59.70
41306;BME280;27051;50.376;19.152;2022-12-18T01:34:55;99629.11;;;-0.88;59.64
41306;BME280;27051;50.376;19.152;2022-12-18T01:37:21;99633.66;;;-0.86;59.76
41306;BME280;27051;50.376;19.152;2022-12-18T01:39:47;99627.27;;;-0.88;59.61
41306;BME280;27051;50.376;19.152;2022-12-18T01:42:14;99627.08;;;-0.95;59.66
41306;BME280;27051;50.376;19.152;2022-12-18T01:47:53;99635.92;;;-0.90;59.75
41306;BME280;27051;50.376;19.152;2022-12-18T01:52:55;99641.85;;;-0.85;59.60
41306;BME280;27051;50.376;19.152;2022-12-18T01:55:51;99641.27;;;-0.87;59.38
41306;BME280;27051;50.376;19.152;2022-12-18T01:58:20;99640.34;;;-0.93;59.74
41306;BME280;27051;50.376;19.152;2022-12-18T02:00:49;99643.91;;;-0.87;59.59
41306;BME280;27051;50.376;19.152;2022-12-18T02:03:14;99649.92;;;-0.89;59.65
41306;BME280;27051;50.376;19.152;2022-12-18T02:08:58;99658.27;;;-0.83;59.79
41306;BME280;27051;50.376;19.152;2022-12-18T02:17:03;99672.40;;;-0.77;59.61
41306;BME280;27051;50.376;19.152;2022-12-18T02:28:43;99688.23;;;-0.98;59.44
41306;BME280;27051;50.376;19.152;2022-12-18T02:31:17;99697.03;;;-1.04;59.44
41306;BME280;27051;50.376;19.152;2022-12-18T02:33:45;99692.45;;;-1.09;59.60
41306;BME280;27051;50.376;19.152;2022-12-18T02:36:14;99699.53;;;-1.10;59.63
41306;BME280;27051;50.376;19.152;2022-12-18T02:38:42;99696.61;;;-1.01;59.75
41306;BME280;27051;50.376;19.152;2022-12-18T02:41:10;99695.42;;;-0.96;59.77
41306;BME280;27051;50.376;19.152;2022-12-18T02:43:36;99695.11;;;-0.97;59.56
41306;BME280;27051;50.376;19.152;2022-12-18T02:49:04;99707.05;;;-0.85;59.79
41306;BME280;27051;50.376;19.152;2022-12-18T02:51:45;99706.11;;;-0.91;59.65
41306;BME280;27051;50.376;19.152;2022-12-18T02:54:23;99706.18;;;-0.89;59.68
41306;BME280;27051;50.376;19.152;2022-12-18T02:56:53;99709.94;;;-0.96;59.57
41306;BME280;27051;50.376;19.152;2022-12-18T02:59:24;99717.55;;;-0.97;59.71
41306;BME280;27051;50.376;19.152;2022-12-18T03:01:55;99718.59;;;-0.98;59.64
41306;BME280;27051;50.376;19.152;2022-12-18T03:07:09;99733.31;;;-1.00;59.69
41306;BME280;27051;50.376;19.152;2022-12-18T03:09:41;99732.80;;;-0.99;59.50
41306;BME280;27051;50.376;19.152;2022-12-18T03:15:13;99737.27;;;-1.00;59.75
41306;BME280;27051;50.376;19.152;2022-12-18T03:17:34;99740.12;;;-0.92;59.81
41306;BME280;27051;50.376;19.152;2022-12-18T03:20:10;99747.02;;;-0.91;59.71
41306;BME280;27051;50.376;19.152;2022-12-18T03:22:34;99742.47;;;-0.84;59.72
41306;BME280;27051;50.376;19.152;2022-12-18T03:25:03;99743.93;;;-0.88;59.53
41306;BME280;27051;50.376;19.152;2022-12-18T03:27:33;99742.79;;;-1.01;59.52
41306;BME280;27051;50.376;19.152;2022-12-18T03:30:04;99750.08;;;-0.94;59.57
41306;BME280;27051;50.376;19.152;2022-12-18T03:32:47;99743.66;;;-0.98;59.64
41306;BME280;27051;50.376;19.152;2022-12-18T03:35:21;99746.89;;;-0.96;59.46
41306;BME280;27051;50.376;19.152;2022-12-18T03:37:47;99752.17;;;-1.05;59.54
41306;BME280;27051;50.376;19.152;2022-12-18T03:40:13;99750.53;;;-0.97;59.56
41306;BME280;27051;50.376;19.152;2022-12-18T03:42:48;99749.98;;;-1.08;59.58
41306;BME280;27051;50.376;19.152;2022-12-18T03:45:27;99754.00;;;-1.06;59.55
41306;BME280;27051;50.376;19.152;2022-12-18T03:48:31;99757.02;;;-1.12;59.65
41306;BME280;27051;50.376;19.152;2022-12-18T03:51:05;99762.80;;;-1.03;59.67
41306;BME280;27051;50.376;19.152;2022-12-18T03:56:09;99768.80;;;-0.96;59.67
41306;BME280;27051;50.376;19.152;2022-12-18T03:58:37;99764.25;;;-0.98;59.74
41306;BME280;27051;50.376;19.152;2022-12-18T04:01:05;99771.92;;;-0.87;59.57
41306;BME280;27051;50.376;19.152;2022-12-18T04:03:33;99775.02;;;-0.90;59.65
41306;BME280;27051;50.376;19.152;2022-12-18T04:06:00;99779.12;;;-0.85;59.47
41306;BME280;27051;50.376;19.152;2022-12-18T04:08:28;99778.39;;;-0.92;59.54
41306;BME280;27051;50.376;19.152;2022-12-18T04:10:54;99781.83;;;-0.92;59.39
41306;BME280;27051;50.376;19.152;2022-12-18T04:13:32;99782.14;;;-1.00;59.32
41306;BME280;27051;50.376;19.152;2022-12-18T04:15:58;99787.52;;;-1.06;59.40
41306;BME280;27051;50.376;19.152;2022-12-18T04:18:24;99781.58;;;-1.11;59.63
41306;BME280;27051;50.376;19.152;2022-12-18T04:20:49;99788.24;;;-1.08;59.58
41306;BME280;27051;50.376;19.152;2022-12-18T04:23:15;99793.35;;;-1.04;59.63
41306;BME280;27051;50.376;19.152;2022-12-18T04:25:41;99792.63;;;-1.02;59.50
41306;BME280;27051;50.376;19.152;2022-12-18T04:28:06;99791.68;;;-1.08;59.46
41306;BME280;27051;50.376;19.152;2022-12-18T04:30:32;99794.69;;;-1.14;59.55
41306;BME280;27051;50.376;19.152;2022-12-18T04:32:58;99805.08;;;-1.10;59.62
41306;BME280;27051;50.376;19.152;2022-12-18T04:35:24;99806.99;;;-1.07;59.66
41306;BME280;27051;50.376;19.152;2022-12-18T04:37:49;99808.17;;;-1.03;59.57
41306;BME280;27051;50.376;19.152;2022-12-18T04:40:15;99801.86;;;-1.02;59.55
41306;BME280;27051;50.376;19.152;2022-12-18T04:42:41;99807.94;;;-1.02;59.62
41306;BME280;27051;50.376;19.152;2022-12-18T04:45:07;99819.02;;;-0.93;59.53
41306;BME280;27051;50.376;19.152;2022-12-18T04:47:33;99820.13;;;-1.01;59.38
41306;BME280;27051;50.376;19.152;2022-12-18T04:49:59;99826.93;;;-1.02;59.38
41306;BME280;27051;50.376;19.152;2022-12-18T04:52:25;99823.42;;;-1.05;59.52
41306;BME280;27051;50.376;19.152;2022-12-18T04:54:51;99833.39;;;-0.98;59.65
41306;BME280;27051;50.376;19.152;2022-12-18T04:57:16;99833.67;;;-0.97;59.44
41306;BME280;27051;50.376;19.152;2022-12-18T04:59:42;99836.76;;;-1.00;59.57
41306;BME280;27051;50.376;19.152;2022-12-18T05:02:08;99844.55;;;-0.96;59.42
41306;BME280;27051;50.376;19.152;2022-12-18T05:04:33;99847.19;;;-0.96;59.50
41306;BME280;27051;50.376;19.152;2022-12-18T05:06:59;99842.26;;;-0.93;59.25
41306;BME280;27051;50.376;19.152;2022-12-18T05:09:24;99842.04;;;-1.00;59.40
41306;BME280;27051;50.376;19.152;2022-12-18T05:11:50;99848.27;;;-0.95;59.32
41306;BME280;27051;50.376;19.152;2022-12-18T05:14:16;99844.16;;;-1.00;59.42
41306;BME280;27051;50.376;19.152;2022-12-18T05:16:42;99840.58;;;-0.96;59.38
41306;BME280;27051;50.376;19.152;2022-12-18T05:19:07;99850.03;;;-0.98;59.49
41306;BME280;27051;50.376;19.152;2022-12-18T05:21:33;99844.61;;;-0.94;59.48
41306;BME280;27051;50.376;19.152;2022-12-18T05:23:58;99853.33;;;-0.93;59.22
41306;BME280;27051;50.376;19.152;2022-12-18T05:26:24;99859.92;;;-1.02;59.16
41306;BME280;27051;50.376;19.152;2022-12-18T05:28:50;99866.83;;;-1.01;59.21
41306;BME280;27051;50.376;19.152;2022-12-18T05:31:16;99867.84;;;-1.12;59.23
41306;BME280;27051;50.376;19.152;2022-12-18T05:33:41;99872.23;;;-1.05;59.29
41306;BME280;27051;50.376;19.152;2022-12-18T05:36:08;99868.42;;;-1.19;59.27
41306;BME280;27051;50.376;19.152;2022-12-18T05:38:36;99881.17;;;-1.16;59.31
41306;BME280;27051;50.376;19.152;2022-12-18T05:41:03;99875.95;;;-1.22;59.28
41306;BME280;27051;50.376;19.152;2022-12-18T05:43:29;99883.06;;;-1.32;59.33
41306;BME280;27051;50.376;19.152;2022-12-18T05:45:56;99883.94;;;-1.29;59.55
41306;BME280;27051;50.376;19.152;2022-12-18T05:48:22;99879.11;;;-1.32;59.43
41306;BME280;27051;50.376;19.152;2022-12-18T05:50:49;99884.67;;;-1.31;59.50
41306;BME280;27051;50.376;19.152;2022-12-18T05:53:18;99886.03;;;-1.38;59.41
41306;BME280;27051;50.376;19.152;2022-12-18T05:55:44;99889.94;;;-1.31;59.64
41306;BME280;27051;50.376;19.152;2022-12-18T05:58:12;99886.14;;;-1.26;59.67
41306;BME280;27051;50.376;19.152;2022-12-18T06:00:42;99896.05;;;-1.12;59.49
41306;BME280;27051;50.376;19.152;2022-12-18T06:03:09;99895.37;;;-1.26;59.40
41306;BME280;27051;50.376;19.152;2022-12-18T06:05:38;99892.73;;;-1.26;59.50
41306;BME280;27051;50.376;19.152;2022-12-18T06:08:05;99898.45;;;-1.20;59.54
41306;BME280;27051;50.376;19.152;2022-12-18T06:10:31;99897.58;;;-1.23;59.51
41306;BME280;27051;50.376;19.152;2022-12-18T06:12:57;99898.25;;;-1.18;59.41
41306;BME280;27051;50.376;19.152;2022-12-18T06:15:22;99895.53;;;-1.21;59.39
41306;BME280;27051;50.376;19.152;2022-12-18T06:17:48;99896.13;;;-1.19;59.32
41306;BME280;27051;50.376;19.152;2022-12-18T06:20:13;99902.56;;;-1.24;59.27
41306;BME280;27051;50.376;19.152;2022-12-18T06:22:39;99889.86;;;-1.34;59.14
41306;BME280;27051;50.376;19.152;2022-12-18T06:25:05;99905.89;;;-1.35;59.20
41306;BME280;27051;50.376;19.152;2022-12-18T06:27:32;99904.58;;;-1.35;59.16
41306;BME280;27051;50.376;19.152;2022-12-18T06:29:57;99911.25;;;-1.42;59.16
41306;BME280;27051;50.376;19.152;2022-12-18T06:32:23;99918.36;;;-1.58;59.02
41306;BME280;27051;50.376;19.152;2022-12-18T06:34:49;99923.34;;;-1.59;59.13
41306;BME280;27051;50.376;19.152;2022-12-18T06:37:14;99924.50;;;-1.64;59.30
41306;BME280;27051;50.376;19.152;2022-12-18T06:39:40;99927.65;;;-1.65;59.13
41306;BME280;27051;50.376;19.152;2022-12-18T06:42:06;99928.48;;;-1.71;59.30
41306;BME280;27051;50.376;19.152;2022-12-18T06:44:31;99935.91;;;-1.70;59.24
41306;BME280;27051;50.376;19.152;2022-12-18T06:46:57;99934.67;;;-1.68;59.22
41306;BME280;27051;50.376;19.152;2022-12-18T06:49:22;99939.34;;;-1.70;59.22
41306;BME280;27051;50.376;19.152;2022-12-18T06:51:48;99939.43;;;-1.67;59.27
41306;BME280;27051;50.376;19.152;2022-12-18T06:54:14;99948.42;;;-1.66;59.30
41306;BME280;27051;50.376;19.152;2022-12-18T06:56:40;99951.15;;;-1.63;59.19
41306;BME280;27051;50.376;19.152;2022-12-18T06:59:05;99954.53;;;-1.65;59.40
41306;BME280;27051;50.376;19.152;2022-12-18T07:01:31;99962.90;;;-1.59;59.18
41306;BME280;27051;50.376;19.152;2022-12-18T07:03:57;99967.91;;;-1.67;59.24
41306;BME280;27051;50.376;19.152;2022-12-18T07:06:25;99972.47;;;-1.65;59.12
41306;BME280;27051;50.376;19.152;2022-12-18T07:08:52;99972.93;;;-1.75;59.24
41306;BME280;27051;50.376;19.152;2022-12-18T07:11:19;99979.61;;;-1.72;59.22
41306;BME280;27051;50.376;19.152;2022-12-18T07:13:45;99974.88;;;-1.79;59.21
41306;BME280;27051;50.376;19.152;2022-12-18T07:16:14;99976.91;;;-1.81;59.21
41306;BME280;27051;50.376;19.152;2022-12-18T07:18:41;99988.17;;;-1.83;58.93
41306;BME280;27051;50.376;19.152;2022-12-18T07:21:09;99987.99;;;-1.88;59.08
41306;BME280;27051;50.376;19.152;2022-12-18T07:23:37;99988.59;;;-1.86;58.91
41306;BME280;27051;50.376;19.152;2022-12-18T07:26:04;99988.31;;;-1.87;59.09
41306;BME280;27051;50.376;19.152;2022-12-18T07:28:35;99997.39;;;-1.83;59.02
41306;BME280;27051;50.376;19.152;2022-12-18T07:31:06;100003.45;;;-1.99;58.80
41306;BME280;27051;50.376;19.152;2022-12-18T07:33:36;100005.00;;;-2.00;58.77
41306;BME280;27051;50.376;19.152;2022-12-18T07:36:03;100006.73;;;-2.03;58.91
41306;BME280;27051;50.376;19.152;2022-12-18T07:38:31;100013.81;;;-2.04;58.84
41306;BME280;27051;50.376;19.152;2022-12-18T07:41:05;100014.73;;;-2.01;59.03
41306;BME280;27051;50.376;19.152;2022-12-18T07:43:34;100021.08;;;-1.92;59.13
41306;BME280;27051;50.376;19.152;2022-12-18T07:46:00;100021.30;;;-1.78;59.07
41306;BME280;27051;50.376;19.152;2022-12-18T07:48:26;100026.03;;;-1.71;59.18
41306;BME280;27051;50.376;19.152;2022-12-18T07:50:52;100022.59;;;-1.56;59.14
41306;BME280;27051;50.376;19.152;2022-12-18T07:53:18;100016.06;;;-1.46;59.22
41306;BME280;27051;50.376;19.152;2022-12-18T07:55:44;100024.77;;;-1.30;58.97
41306;BME280;27051;50.376;19.152;2022-12-18T07:58:09;100018.85;;;-1.25;58.99
41306;BME280;27051;50.376;19.152;2022-12-18T08:00:35;100021.53;;;-1.16;58.96
41306;BME280;27051;50.376;19.152;2022-12-18T08:03:01;100020.63;;;-1.03;59.03
41306;BME280;27051;50.376;19.152;2022-12-18T08:05:27;100017.59;;;-0.82;58.83
41306;BME280;27051;50.376;19.152;2022-12-18T08:07:53;100021.86;;;-0.72;58.78
41306;BME280;27051;50.376;19.152;2022-12-18T08:10:20;100023.72;;;-0.54;58.63
41306;BME280;27051;50.376;19.152;2022-12-18T08:12:50;100017.20;;;-0.42;58.69
41306;BME280;27051;50.376;19.152;2022-12-18T08:15:16;100024.55;;;-0.16;58.67
41306;BME280;27051;50.376;19.152;2022-12-18T08:17:42;100024.39;;;0.06;58.67
41306;BME280;27051;50.376;19.152;2022-12-18T08:20:08;100022.50;;;0.25;58.25
41306;BME280;27051;50.376;19.152;2022-12-18T08:22:35;100023.23;;;0.32;58.08
41306;BME280;27051;50.376;19.152;2022-12-18T08:25:01;100029.03;;;0.41;58.07
41306;BME280;27051;50.376;19.152;2022-12-18T08:27:27;100030.03;;;0.49;57.85
41306;BME280;27051;50.376;19.152;2022-12-18T08:29:53;100027.98;;;0.42;57.79
41306;BME280;27051;50.376;19.152;2022-12-18T08:32:18;100026.66;;;0.42;57.49
41306;BME280;27051;50.376;19.152;2022-12-18T08:34:44;100033.35;;;0.35;57.67
41306;BME280;27051;50.376;19.152;2022-12-18T08:37:10;100029.70;;;0.36;57.41
41306;BME280;27051;50.376;19.152;2022-12-18T08:39:46;100029.42;;;0.26;57.37
41306;BME280;27051;50.376;19.152;2022-12-18T08:42:12;100036.31;;;0.27;57.43
41306;BME280;27051;50.376;19.152;2022-12-18T08:44:37;100040.14;;;0.31;57.56
41306;BME280;27051;50.376;19.152;2022-12-18T08:47:04;100046.09;;;0.27;57.19
41306;BME280;27051;50.376;19.152;2022-12-18T08:49:30;100051.70;;;0.18;57.27
41306;BME280;27051;50.376;19.152;2022-12-18T08:51:56;100052.50;;;0.19;57.40
41306;BME280;27051;50.376;19.152;2022-12-18T08:54:23;100056.33;;;0.23;57.40
41306;BME280;27051;50.376;19.152;2022-12-18T08:56:49;100054.62;;;0.29;57.50
41306;BME280;27051;50.376;19.152;2022-12-18T08:59:15;100061.37;;;0.25;57.02
41306;BME280;27051;50.376;19.152;2022-12-18T09:01:43;100055.80;;;0.14;57.24
41306;BME280;27051;50.376;19.152;2022-12-18T09:04:22;100068.16;;;0.11;57.17
41306;BME280;27051;50.376;19.152;2022-12-18T09:06:47;100066.63;;;0.13;57.30
41306;BME280;27051;50.376;19.152;2022-12-18T09:09:13;100068.16;;;0.20;57.10
41306;BME280;27051;50.376;19.152;2022-12-18T09:11:39;100080.64;;;0.13;57.01
41306;BME280;27051;50.376;19.152;2022-12-18T09:19:32;100088.69;;;0.28;56.96
41306;BME280;27051;50.376;19.152;2022-12-18T09:21:58;100084.72;;;0.28;56.96
41306;BME280;27051;50.376;19.152;2022-12-18T09:24:24;100096.17;;;0.40;56.87
41306;BME280;27051;50.376;19.152;2022-12-18T09:26:54;100087.44;;;0.39;56.79
41306;BME280;27051;50.376;19.152;2022-12-18T09:29:20;100087.13;;;0.48;56.67
41306;BME280;27051;50.376;19.152;2022-12-18T09:31:46;100080.51;;;0.48;56.53
41306;BME280;27051;50.376;19.152;2022-12-18T09:34:11;100084.16;;;0.56;56.68
41306;BME280;27051;50.376;19.152;2022-12-18T09:36:37;100086.06;;;0.67;56.54
41306;BME280;27051;50.376;19.152;2022-12-18T09:39:04;100084.22;;;0.68;56.47
41306;BME280;27051;50.376;19.152;2022-12-18T09:41:44;100080.48;;;0.87;56.26
41306;BME280;27051;50.376;19.152;2022-12-18T09:49:51;100098.52;;;1.20;56.08
41306;BME280;27051;50.376;19.152;2022-12-18T09:52:30;100097.61;;;1.38;56.00
41306;BME280;27051;50.376;19.152;2022-12-18T09:55:24;100093.35;;;1.49;55.95
41306;BME280;27051;50.376;19.152;2022-12-18T09:58:12;100093.31;;;1.58;55.66
41306;BME280;27051;50.376;19.152;2022-12-18T10:00:36;100089.94;;;1.63;55.54
41306;BME280;27051;50.376;19.152;2022-12-18T10:03:11;100097.20;;;1.67;55.43
41306;BME280;27051;50.376;19.152;2022-12-18T10:05:43;100095.55;;;1.64;55.15
41306;BME280;27051;50.376;19.152;2022-12-18T10:20:22;100094.94;;;1.15;55.44
41306;BME280;27051;50.376;19.152;2022-12-18T10:26:00;100097.59;;;1.15;55.43
41306;BME280;27051;50.376;19.152;2022-12-18T10:28:30;100097.47;;;1.10;55.35
41306;BME280;27051;50.376;19.152;2022-12-18T10:30:57;100088.63;;;1.27;55.20
41306;BME280;27051;50.376;19.152;2022-12-18T10:33:28;100083.76;;;1.24;55.24
41306;BME280;27051;50.376;19.152;2022-12-18T10:35:54;100079.84;;;1.27;55.29
41306;BME280;27051;50.376;19.152;2022-12-18T10:38:22;100073.46;;;1.37;55.14
41306;BME280;27051;50.376;19.152;2022-12-18T10:46:38;100068.98;;;1.49;55.01
41306;BME280;27051;50.376;19.152;2022-12-18T10:49:04;100069.34;;;1.53;54.77
41306;BME280;27051;50.376;19.152;2022-12-18T10:51:31;100068.81;;;1.54;54.71
41306;BME280;27051;50.376;19.152;2022-12-18T10:54:04;100069.95;;;1.58;54.66
41306;BME280;27051;50.376;19.152;2022-12-18T10:56:34;100067.13;;;1.50;54.79
41306;BME280;27051;50.376;19.152;2022-12-18T11:04:24;100054.58;;;1.34;54.51
41306;BME280;27051;50.376;19.152;2022-12-18T11:06:59;100059.36;;;1.34;54.59
41306;BME280;27051;50.376;19.152;2022-12-18T11:09:29;100049.92;;;1.38;54.69
41306;BME280;27051;50.376;19.152;2022-12-18T11:11:58;100047.39;;;1.43;54.54
41306;BME280;27051;50.376;19.152;2022-12-18T11:14:27;100038.27;;;1.39;54.44
41306;BME280;27051;50.376;19.152;2022-12-18T11:16:55;100049.05;;;1.47;54.55
41306;BME280;27051;50.376;19.152;2022-12-18T11:19:37;100040.35;;;1.49;54.38
41306;BME280;27051;50.376;19.152;2022-12-18T11:25:00;100045.77;;;1.66;54.50
41306;BME280;27051;50.376;19.152;2022-12-18T11:27:28;100045.73;;;1.78;54.32
41306;BME280;27051;50.376;19.152;2022-12-18T11:30:38;100039.41;;;1.79;53.82
41306;BME280;27051;50.376;19.152;2022-12-18T11:32:38;100040.80;;;1.95;54.32
41306;BME280;27051;50.376;19.152;2022-12-18T11:35:45;100053.81;;;2.09;53.82
41306;BME280;27051;50.376;19.152;2022-12-18T11:41:00;100057.57;;;2.25;53.03
41306;BME280;27051;50.376;19.152;2022-12-18T11:43:41;100061.05;;;2.13;53.37
41306;BME280;27051;50.376;19.152;2022-12-18T11:46:30;100067.73;;;2.02;53.26
41306;BME280;27051;50.376;19.152;2022-12-18T11:49:11;100059.09;;;1.94;53.42
41306;BME280;27051;50.376;19.152;2022-12-18T11:51:53;100063.22;;;2.02;53.36
41306;BME280;27051;50.376;19.152;2022-12-18T11:54:21;100062.70;;;2.03;53.38
41306;BME280;27051;50.376;19.152;2022-12-18T11:57:08;100063.00;;;2.04;53.21
41306;BME280;27051;50.376;19.152;2022-12-18T12:12:10;100068.61;;;2.33;53.23
41306;BME280;27051;50.376;19.152;2022-12-18T12:15:06;100067.53;;;2.32;52.85
41306;BME280;27051;50.376;19.152;2022-12-18T12:17:53;100066.64;;;2.55;52.99
41306;BME280;27051;50.376;19.152;2022-12-18T12:20:39;100073.42;;;2.79;52.48
41306;BME280;27051;50.376;19.152;2022-12-18T12:23:36;100071.42;;;2.70;52.60
41306;BME280;27051;50.376;19.152;2022-12-18T12:29:25;100076.71;;;2.41;52.42
41306;BME280;27051;50.376;19.152;2022-12-18T12:39:46;100090.50;;;2.69;52.10
41306;BME280;27051;50.376;19.152;2022-12-18T12:45:07;100083.24;;;2.93;51.81
41306;BME280;27051;50.376;19.152;2022-12-18T12:47:38;100093.48;;;3.52;51.50
41306;BME280;27051;50.376;19.152;2022-12-18T12:50:16;100087.83;;;3.85;51.45
41306;BME280;27051;50.376;19.152;2022-12-18T12:52:45;100081.44;;;4.05;50.88
41306;BME280;27051;50.376;19.152;2022-12-18T12:55:19;100077.63;;;4.21;50.74
41306;BME280;27051;50.376;19.152;2022-12-18T12:57:59;100077.45;;;4.30;50.57
41306;BME280;27051;50.376;19.152;2022-12-18T13:00:45;100080.83;;;4.20;50.48
41306;BME280;27051;50.376;19.152;2022-12-18T13:03:52;100084.49;;;4.17;50.58
41306;BME280;27051;50.376;19.152;2022-12-18T13:08:54;100083.86;;;4.53;50.38
41306;BME280;27051;50.376;19.152;2022-12-18T13:14:10;100089.11;;;6.20;49.73
41306;BME280;27051;50.376;19.152;2022-12-18T13:16:38;100083.36;;;6.61;49.12
41306;BME280;27051;50.376;19.152;2022-12-18T13:19:03;100085.53;;;6.67;48.66
41306;BME280;27051;50.376;19.152;2022-12-18T13:21:31;100095.69;;;6.70;48.78
41306;BME280;27051;50.376;19.152;2022-12-18T13:24:20;100100.38;;;6.32;48.52
41306;BME280;27051;50.376;19.152;2022-12-18T13:26:51;100103.67;;;5.94;48.14
41306;BME280;27051;50.376;19.152;2022-12-18T13:29:41;100109.98;;;5.80;48.39
41306;BME280;27051;50.376;19.152;2022-12-18T13:32:22;100108.77;;;5.58;48.53
41306;BME280;27051;50.376;19.152;2022-12-18T13:35:37;100103.09;;;5.15;48.53
41306;BME280;27051;50.376;19.152;2022-12-18T13:37:53;100103.17;;;4.66;48.82
41306;BME280;27051;50.376;19.152;2022-12-18T13:49:16;100115.34;;;2.92;49.30
41306;BME280;27051;50.376;19.152;2022-12-18T13:51:48;100123.08;;;2.50;49.74
41306;BME280;27051;50.376;19.152;2022-12-18T13:56:52;100130.74;;;1.97;50.00
41306;BME280;27051;50.376;19.152;2022-12-18T13:59:23;100129.14;;;1.84;50.19
41306;BME280;27051;50.376;19.152;2022-12-18T14:02:05;100116.86;;;1.57;50.15
41306;BME280;27051;50.376;19.152;2022-12-18T14:04:39;100129.00;;;1.44;50.17
41306;BME280;27051;50.376;19.152;2022-12-18T14:07:07;100117.33;;;1.21;50.34
41306;BME280;27051;50.376;19.152;2022-12-18T14:09:44;100125.58;;;1.01;50.30
41306;BME280;27051;50.376;19.152;2022-12-18T14:12:30;100123.24;;;0.72;50.49
41306;BME280;27051;50.376;19.152;2022-12-18T14:14:53;100123.77;;;0.62;50.57
41306;BME280;27051;50.376;19.152;2022-12-18T14:17:19;100117.27;;;0.37;50.59
41306;BME280;27051;50.376;19.152;2022-12-18T14:19:47;100123.90;;;0.19;50.70
41306;BME280;27051;50.376;19.152;2022-12-18T14:22:25;100128.81;;;0.06;50.68
41306;BME280;27051;50.376;19.152;2022-12-18T14:27:51;100122.83;;;-0.26;50.58
41306;BME280;27051;50.376;19.152;2022-12-18T14:30:27;100123.31;;;-0.45;50.72
41306;BME280;27051;50.376;19.152;2022-12-18T14:36:03;100121.33;;;-0.91;50.68
41306;BME280;27051;50.376;19.152;2022-12-18T14:38:35;100130.75;;;-1.01;50.89
41306;BME280;27051;50.376;19.152;2022-12-18T14:41:05;100126.77;;;-1.17;50.72
41306;BME280;27051;50.376;19.152;2022-12-18T14:43:35;100133.95;;;-1.31;50.86
41306;BME280;27051;50.376;19.152;2022-12-18T14:46:03;100133.23;;;-1.45;50.98
41306;BME280;27051;50.376;19.152;2022-12-18T14:48:48;100135.59;;;-1.52;50.92
41306;BME280;27051;50.376;19.152;2022-12-18T14:51:27;100137.36;;;-1.69;51.06
41306;BME280;27051;50.376;19.152;2022-12-18T14:53:59;100153.09;;;-1.78;51.03
41306;BME280;27051;50.376;19.152;2022-12-18T14:56:33;100149.80;;;-1.96;50.84
41306;BME280;27051;50.376;19.152;2022-12-18T14:59:05;100146.00;;;-2.20;50.67
41306;BME280;27051;50.376;19.152;2022-12-18T15:01:39;100152.00;;;-2.35;50.92
41306;BME280;27051;50.376;19.152;2022-12-18T15:04:23;100153.82;;;-2.43;50.99
41306;BME280;27051;50.376;19.152;2022-12-18T15:07:20;100153.00;;;-2.50;51.23
41306;BME280;27051;50.376;19.152;2022-12-18T15:12:43;100165.87;;;-2.64;51.29